Time;durP1;ratioP1;P1;durP2;ratioP2;P2;SDS_P1;SDS_P2;PMS_P1;PMS_P2;Temp;Humidity;BMP_temperature;BMP_pressure;BME280_temperature;BME280_humidity;BME280_pressure;Samples;Min_cycle;Max_cycle;Signal;HPM_P1;HPM_P2
2023/10/28 00:03:27;;;;;;;2.33;2.13;;;;;;;10.72;61.30;98142.06;10328749;28;20957;-42
2023/10/28 00:08:29;;;;;;;2.20;2.10;;;;;;;9.08;63.18;98381.44;10329614;28;20253;-40
2023/10/28 00:13:31;;;;;;;2.27;2.07;;;;;;;10.82;60.36;98163.78;10337266;28;20687;-39
2023/10/28 00:18:33;;;;;;;1.90;1.80;;;;;;;11.15;59.52;98182.03;10338593;28;21026;-42
2023/10/28 00:23:36;;;;;;;2.40;2.23;;;;;;;9.48;63.53;98261.16;10336617;28;20895;-41
2023/10/28 00:28:39;;;;;;;2.63;2.20;;;;;;;9.94;61.19;98326.88;10333776;28;20245;-41
2023/10/28 00:33:42;;;;;;;2.93;1.90;;;;;;;10.56;59.57;98320.81;10332183;28;21042;-42
2023/10/28 00:38:44;;;;;;;1.80;1.70;;;;;;;11.00;60.44;98168.25;10335840;28;20832;-40
2023/10/28 00:43:47;;;;;;;2.00;1.90;;;;;;;11.23;59.63;98194.31;10333826;28;20809;-39
2023/10/28 00:48:52;;;;;;;2.50;2.27;;;;;;;11.01;59.75;98207.38;10329483;28;20279;-40
2023/10/28 00:53:55;;;;;;;1.90;1.80;;;;;;;11.29;59.83;98163.13;10330944;28;20752;-43
2023/10/28 00:58:58;;;;;;;2.10;1.80;;;;;;;10.01;62.51;98264.56;10346104;28;20319;-40
2023/10/28 01:04:00;;;;;;;3.17;2.60;;;;;;;10.84;60.63;98255.34;10331737;28;20230;-40
2023/10/28 01:09:02;;;;;;;2.40;2.30;;;;;;;11.38;58.94;98298.34;10337872;28;20232;-42
2023/10/28 01:14:06;;;;;;;2.23;2.10;;;;;;;11.25;59.11;98288.59;10330418;28;20544;-39
2023/10/28 01:19:09;;;;;;;2.10;1.87;;;;;;;11.45;57.80;98331.22;10335245;28;20234;-39
2023/10/28 01:24:10;;;;;;;2.13;2.03;;;;;;;11.41;58.53;98271.91;10332562;28;20229;-40
2023/10/28 01:29:12;;;;;;;2.03;1.93;;;;;;;11.80;57.27;98288.50;10337424;28;20257;-41
2023/10/28 01:34:14;;;;;;;2.53;2.33;;;;;;;11.73;57.90;98276.28;10332931;28;20229;-41
2023/10/28 01:39:16;;;;;;;2.20;2.10;;;;;;;11.19;58.63;98346.56;10334856;28;20214;-41
2023/10/28 01:44:18;;;;;;;1.83;1.73;;;;;;;10.05;60.00;98421.56;10330000;28;20236;-39
2023/10/28 01:49:20;;;;;;;2.00;1.90;;;;;;;11.20;57.58;98325.94;10329720;28;20341;-39
2023/10/28 01:54:22;;;;;;;2.77;1.97;;;;;;;11.47;57.64;98283.59;10333297;28;20600;-39
2023/10/28 01:59:27;;;;;;;2.40;1.97;;;;;;;12.06;55.79;98227.47;10331565;28;20695;-38
2023/10/28 02:04:30;;;;;;;4.40;2.20;;;;;;;10.63;58.10;98415.22;10328320;28;20264;-38
2023/10/28 02:09:35;;;;;;;2.67;2.17;;;;;;;10.80;57.52;98423.53;10333651;28;20232;-42
2023/10/28 02:14:36;;;;;;;2.30;2.10;;;;;;;10.98;57.58;98333.63;10331201;28;20668;-42
2023/10/28 02:19:39;;;;;;;5.73;2.73;;;;;;;10.39;57.92;98470.28;10334040;28;20375;-41
2023/10/28 02:24:41;;;;;;;3.97;2.40;;;;;;;11.63;56.07;98298.25;10335362;28;20730;-41
2023/10/28 02:29:43;;;;;;;2.50;2.30;;;;;;;11.26;56.78;98333.09;10333100;28;20617;-42
2023/10/28 02:34:45;;;;;;;2.73;2.40;;;;;;;11.33;56.40;98347.22;10331440;28;20233;-40
2023/10/28 02:39:47;;;;;;;4.10;2.10;;;;;;;11.01;57.24;98349.22;10344332;28;20229;-40
2023/10/28 02:44:50;;;;;;;2.07;1.97;;;;;;;11.09;56.74;98369.56;10334871;28;20241;-40
2023/10/28 02:49:51;;;;;;;2.17;1.87;;;;;;;10.66;57.79;98344.38;10330250;28;20245;-41
2023/10/28 02:54:53;;;;;;;5.10;1.90;;;;;;;11.57;56.79;98258.94;10321015;28;20933;-41
2023/10/28 02:59:55;;;;;;;2.53;2.07;;;;;;;12.15;55.23;98231.47;10333046;28;20237;-38
2023/10/28 03:04:57;;;;;;;2.43;1.87;;;;;;;10.85;56.72;98377.41;10329584;28;20635;-41
2023/10/28 03:09:59;;;;;;;3.90;2.00;;;;;;;10.61;57.08;98408.44;10333572;28;20683;-41
2023/10/28 03:15:02;;;;;;;3.93;2.47;;;;;;;11.13;55.79;98357.34;10328654;28;20537;-42
2023/10/28 03:20:11;;;;;;;5.80;2.83;;;;;;;12.33;54.04;98272.63;10345327;28;20220;-41
2023/10/28 03:25:13;;;;;;;4.10;2.07;;;;;;;11.58;55.42;98355.16;10337582;28;20345;-43
2023/10/28 03:30:15;;;;;;;6.80;3.13;;;;;;;11.85;55.26;98295.88;10329326;28;20217;-40
2023/10/28 03:35:18;;;;;;;3.37;2.53;;;;;;;11.02;57.00;98401.75;10330756;28;20244;-41
2023/10/28 03:40:20;;;;;;;2.80;2.03;;;;;;;11.95;54.80;98322.13;10329496;28;20664;-39
2023/10/28 03:45:21;;;;;;;2.30;2.20;;;;;;;10.63;57.46;98395.66;10333443;28;20236;-41
2023/10/28 03:50:24;;;;;;;2.67;2.47;;;;;;;11.71;56.14;98279.19;10337769;28;20202;-38
2023/10/28 03:55:27;;;;;;;5.73;2.67;;;;;;;11.13;56.84;98363.50;10340308;28;20599;-39
2023/10/28 04:00:29;;;;;;;2.37;1.90;;;;;;;10.78;57.05;98424.78;10338812;28;20847;-39
2023/10/28 04:05:30;;;;;;;6.77;3.03;;;;;;;11.13;56.53;98389.47;10339024;28;20261;-41
2023/10/28 04:10:33;;;;;;;3.03;2.40;;;;;;;11.04;55.96;98435.25;10332263;28;20233;-41
2023/10/28 04:15:37;;;;;;;2.73;2.17;;;;;;;11.16;56.71;98336.28;10338351;28;20245;-41
2023/10/28 04:20:39;;;;;;;5.37;2.80;;;;;;;11.64;55.21;98345.41;10338502;28;20214;-40
2023/10/28 04:25:42;;;;;;;4.03;2.60;;;;;;;11.53;55.49;98362.25;10336384;28;20241;-40
2023/10/28 04:30:54;;;;;;;5.20;2.10;;;;;;;11.37;55.78;98337.72;10337042;28;20243;-43
2023/10/28 04:35:56;;;;;;;6.67;2.47;;;;;;;10.19;57.32;98526.56;10336150;28;20241;-40
2023/10/28 04:40:58;;;;;;;6.30;2.27;;;;;;;10.76;57.50;98307.28;10336299;28;20268;-41
2023/10/28 04:46:00;;;;;;;5.03;2.40;;;;;;;11.54;55.47;98272.78;10354279;28;20237;-40
2023/10/28 04:51:03;;;;;;;4.43;2.90;;;;;;;10.85;55.73;98390.78;10334750;28;20236;-41
2023/10/28 04:56:08;;;;;;;4.20;2.20;;;;;;;10.63;56.06;98423.25;10346881;28;20233;-43
2023/10/28 05:01:10;;;;;;;5.00;2.60;;;;;;;10.51;57.03;98382.16;10340102;28;20243;-43
2023/10/28 05:06:12;;;;;;;3.10;2.03;;;;;;;10.75;56.73;98313.69;10333258;28;20716;-38
2023/10/28 05:11:16;;;;;;;4.83;2.20;;;;;;;11.29;55.71;98254.16;10332626;28;20236;-36
2023/10/28 05:16:19;;;;;;;2.20;2.00;;;;;;;11.17;54.74;98296.94;10335932;28;20440;-41
2023/10/28 05:21:20;;;;;;;4.23;2.87;;;;;;;12.13;53.16;98246.13;10336430;28;20241;-39
2023/10/28 05:26:22;;;;;;;3.07;1.93;;;;;;;11.42;54.02;98275.41;10329548;28;20691;-40
2023/10/28 05:31:27;;;;;;;2.33;2.10;;;;;;;10.89;55.31;98319.72;10332251;28;20265;-39
2023/10/28 05:36:29;;;;;;;5.27;2.23;;;;;;;10.06;56.13;98473.19;10333641;28;20928;-42
2023/10/28 05:41:31;;;;;;;3.20;2.50;;;;;;;11.77;53.04;98299.69;10333101;28;20238;-41
2023/10/28 05:46:32;;;;;;;4.43;2.33;;;;;;;10.97;53.52;98447.09;10338376;28;20245;-40
2023/10/28 05:51:36;;;;;;;4.33;2.60;;;;;;;10.62;54.24;98475.09;10330723;28;20225;-36
2023/10/28 05:56:38;;;;;;;4.70;2.60;;;;;;;10.14;55.25;98475.56;10329551;28;20326;-42
2023/10/28 06:01:40;;;;;;;5.10;2.23;;;;;;;11.48;53.69;98325.41;10331997;28;20284;-39
2023/10/28 06:06:42;;;;;;;5.57;2.60;;;;;;;10.82;54.27;98426.00;10332162;28;20287;-42
2023/10/28 06:11:44;;;;;;;3.10;1.90;;;;;;;11.05;53.70;98387.88;10331286;28;20272;-42
2023/10/28 06:16:46;;;;;;;4.13;2.40;;;;;;;11.33;53.02;98416.03;10328525;28;20238;-39
2023/10/28 06:21:48;;;;;;;3.40;2.20;;;;;;;10.16;54.82;98529.66;10334076;28;20229;-38
2023/10/28 06:26:51;;;;;;;3.63;2.93;;;;;;;10.94;54.40;98351.16;10329601;28;20300;-41
2023/10/28 06:31:53;;;;;;;3.37;2.23;;;;;;;11.30;53.77;98347.66;10338111;28;20312;-37
2023/10/28 06:36:55;;;;;;;3.30;1.80;;;;;;;9.76;54.68;98632.09;10334150;28;20228;-39
2023/10/28 06:41:57;;;;;;;2.90;1.60;;;;;;;11.16;53.87;98355.03;10334526;28;20271;-40
2023/10/28 06:46:59;;;;;;;2.17;2.00;;;;;;;10.71;54.76;98414.09;10330674;28;20338;-41
2023/10/28 06:52:00;;;;;;;2.40;2.00;;;;;;;9.51;55.69;98609.72;10330519;28;21009;-44
2023/10/28 06:57:03;;;;;;;3.00;2.23;;;;;;;11.68;52.57;98341.25;10333434;28;20241;-40
2023/10/28 07:02:05;;;;;;;1.93;1.83;;;;;;;10.44;53.91;98590.81;10331943;28;20241;-39
2023/10/28 07:07:08;;;;;;;5.97;2.47;;;;;;;11.66;52.28;98434.44;10332337;28;20494;-38
2023/10/28 07:12:10;;;;;;;2.83;2.63;;;;;;;11.74;52.56;98438.66;10333260;28;20734;-39
2023/10/28 07:17:12;;;;;;;3.00;2.03;;;;;;;11.50;53.48;98464.47;10328172;28;20237;-38
2023/10/28 07:22:16;;;;;;;3.20;2.33;;;;;;;11.33;53.74;98453.53;10332793;28;20253;-40
2023/10/28 07:27:18;;;;;;;3.57;2.23;;;;;;;11.12;53.53;98527.88;10340500;28;20288;-41
2023/10/28 07:32:20;;;;;;;2.30;2.20;;;;;;;10.23;55.05;98583.13;10335832;28;20225;-41
2023/10/28 07:37:22;;;;;;;2.37;1.90;;;;;;;10.97;54.34;98498.75;10335067;28;20285;-39
2023/10/28 07:42:24;;;;;;;3.57;1.97;;;;;;;12.48;51.70;98449.25;10333776;28;20743;-39
2023/10/28 07:47:26;;;;;;;4.10;2.53;;;;;;;12.15;52.25;98472.78;10352563;28;20237;-40
2023/10/28 07:52:28;;;;;;;2.57;2.00;;;;;;;10.87;53.87;98648.28;10337662;28;20267;-40
2023/10/28 07:57:30;;;;;;;4.77;2.17;;;;;;;11.63;53.25;98502.69;10335915;28;20244;-40
2023/10/28 08:02:32;;;;;;;4.50;2.50;;;;;;;11.91;52.76;98474.56;10335720;28;20234;-38
2023/10/28 08:07:34;;;;;;;4.27;2.00;;;;;;;11.69;52.95;98500.16;10337404;28;20247;-40
2023/10/28 08:12:36;;;;;;;4.40;2.00;;;;;;;13.23;50.47;98439.78;10334795;28;20233;-36
2023/10/28 08:17:38;;;;;;;4.70;2.60;;;;;;;12.77;51.52;98468.22;10336240;28;20256;-40
2023/10/28 08:22:40;;;;;;;4.40;2.43;;;;;;;11.93;52.85;98568.97;10335976;28;20328;-40
2023/10/28 08:27:44;;;;;;;2.57;2.20;;;;;;;11.68;53.18;98581.59;10331676;28;20229;-36
2023/10/28 08:32:46;;;;;;;4.83;3.00;;;;;;;12.68;51.93;98530.28;10335775;28;20333;-39
2023/10/28 08:37:48;;;;;;;3.20;2.90;;;;;;;12.29;52.37;98607.53;10332122;28;20234;-39
2023/10/28 08:42:51;;;;;;;3.87;2.30;;;;;;;13.36;52.29;98404.63;10331525;28;20789;-38
2023/10/28 08:47:53;;;;;;;4.33;2.20;;;;;;;12.89;52.18;98522.75;10333578;28;20833;-39
2023/10/28 08:52:57;;;;;;;3.47;2.20;;;;;;;12.98;51.82;98491.84;10336337;28;20622;-39
2023/10/28 08:57:59;;;;;;;4.03;2.20;;;;;;;12.90;51.72;98530.56;10333476;28;20241;-41
2023/10/28 09:03:05;;;;;;;2.53;2.27;;;;;;;13.58;51.70;98420.94;10334205;28;20256;-40
2023/10/28 09:08:07;;;;;;;4.73;2.10;;;;;;;13.01;51.81;98499.44;10336996;28;20241;-34
2023/10/28 09:13:08;;;;;;;3.37;1.80;;;;;;;13.78;50.91;98451.97;10331509;28;20238;-41
2023/10/28 09:18:10;;;;;;;5.60;4.03;;;;;;;13.28;51.08;98576.91;10332513;28;20360;-40
2023/10/28 09:23:13;;;;;;;4.67;2.33;;;;;;;13.57;50.41;98532.19;10333057;28;20706;-41
2023/10/28 09:28:16;;;;;;;4.93;2.30;;;;;;;13.25;50.73;98520.94;10332764;28;20285;-37
2023/10/28 09:33:18;;;;;;;2.63;2.43;;;;;;;14.48;49.12;98493.97;10337680;28;20232;-39
2023/10/28 09:38:21;;;;;;;2.47;2.27;;;;;;;13.52;50.82;98604.63;10334786;28;20225;-44
2023/10/28 09:43:24;;;;;;;4.60;2.33;;;;;;;13.75;50.39;98527.72;10335070;28;20236;-41
2023/10/28 09:48:31;;;;;;;5.07;2.33;;;;;;;13.26;50.53;98617.41;10337035;28;20712;-41
2023/10/28 09:53:37;;;;;;;3.20;1.73;;;;;;;13.82;50.35;98488.91;10347457;28;20724;-41
2023/10/28 09:58:51;;;;;;;2.50;1.60;;;;;;;13.44;49.79;98624.59;10330751;28;20230;-40
2023/10/28 10:04:08;;;;;;;4.27;2.10;;;;;;;14.62;48.80;98461.34;10336692;28;20233;-38
2023/10/28 10:09:13;;;;;;;5.57;2.10;;;;;;;14.21;48.87;98504.50;10327975;28;20243;-37
2023/10/28 10:14:17;;;;;;;5.50;2.47;;;;;;;14.63;48.20;98481.81;10329478;28;20264;-37
2023/10/28 10:19:35;;;;;;;4.40;1.90;;;;;;;13.51;49.56;98556.47;10331400;28;20621;-42
2023/10/28 10:24:49;;;;;;;3.07;2.10;;;;;;;14.42;49.02;98451.03;10333385;28;20249;-40
2023/10/28 10:29:51;;;;;;;4.43;2.30;;;;;;;13.66;49.60;98509.25;10329527;28;20237;-44
2023/10/28 10:34:53;;;;;;;4.80;2.70;;;;;;;14.39;48.58;98465.78;10332831;28;20229;-41
2023/10/28 10:39:57;;;;;;;6.57;2.47;;;;;;;14.81;47.15;98505.00;10329314;28;20232;-42
2023/10/28 10:45:01;;;;;;;4.10;1.80;;;;;;;15.14;47.31;98437.69;10335349;28;20234;-41
2023/10/28 10:50:05;;;;;;;2.50;1.90;;;;;;;14.09;48.63;98527.91;10331517;28;20237;-42
2023/10/28 10:55:08;;;;;;;5.13;2.17;;;;;;;13.67;49.22;98515.47;10333023;28;20738;-43
2023/10/28 11:06:12;;;;;;;4.13;1.97;;;;;;;10.57;56.43;98380.50;10350773;27;20820;-67
2023/10/28 11:11:14;;;;;;;4.23;2.23;;;;;;;11.51;55.03;98389.25;10287999;28;20323;-67
2023/10/28 11:16:26;;;;;;;5.30;2.00;;;;;;;10.80;56.84;98414.69;10310565;28;20956;-67
2023/10/28 11:21:29;;;;;;;4.10;2.07;;;;;;;11.20;55.71;98449.13;10327650;28;20233;-67
2023/10/28 11:26:32;;;;;;;5.23;2.33;;;;;;;11.65;55.72;98370.38;10331305;28;20367;-67
2023/10/28 11:31:38;;;;;;;6.67;2.67;;;;;;;10.48;57.37;98438.78;10324719;28;20221;-67
2023/10/28 11:36:40;;;;;;;4.50;2.60;;;;;;;11.59;56.24;98358.63;10303037;28;20234;-67
2023/10/28 11:41:43;;;;;;;4.57;3.07;;;;;;;11.90;55.81;98459.50;10317907;28;20230;-67
2023/10/28 11:46:46;;;;;;;3.93;2.33;;;;;;;10.63;57.74;98475.91;10325383;28;20230;-67
2023/10/28 11:51:48;;;;;;;6.93;2.57;;;;;;;11.45;57.46;98415.06;10325433;28;20233;-68
2023/10/28 11:56:50;;;;;;;4.57;2.50;;;;;;;11.29;58.82;98409.47;10328244;28;20241;-69
2023/10/28 12:01:53;;;;;;;10.37;2.63;;;;;;;9.80;61.78;98450.81;10319668;28;20321;-69
2023/10/28 12:06:57;;;;;;;6.33;2.40;;;;;;;11.36;59.38;98337.94;10333852;28;20320;-68
2023/10/28 12:11:59;;;;;;;4.40;2.37;;;;;;;11.49;59.11;98382.47;10336424;28;20236;-69
2023/10/28 12:17:01;;;;;;;6.80;2.80;;;;;;;10.86;59.94;98460.13;10310133;28;20326;-69
2023/10/28 12:22:03;;;;;;;5.53;3.27;;;;;;;11.84;58.23;98361.22;10306955;28;20277;-69
2023/10/28 12:27:05;;;;;;;5.43;2.80;;;;;;;10.60;59.13;98554.75;10299726;28;20329;-67
2023/10/28 12:32:07;;;;;;;7.07;2.73;;;;;;;10.63;60.32;98449.16;10275795;28;20234;-68
2023/10/28 12:37:09;;;;;;;4.43;2.40;;;;;;;11.30;59.47;98325.44;10265629;28;20249;-69
2023/10/28 12:42:11;;;;;;;6.90;3.00;;;;;;;11.26;59.55;98362.56;10291996;28;20234;-68
2023/10/28 12:47:15;;;;;;;6.33;2.97;;;;;;;10.89;59.46;98448.97;10304568;28;20297;-67
2023/10/28 12:52:20;;;;;;;3.67;2.93;;;;;;;10.96;61.19;98368.63;10305000;28;20512;-70
2023/10/28 12:57:21;;;;;;;7.80;3.27;;;;;;;11.65;59.63;98327.50;10303784;28;20230;-69
2023/10/28 13:02:23;;;;;;;5.30;2.50;;;;;;;11.53;58.33;98472.06;10301540;28;20852;-70
2023/10/28 13:07:25;;;;;;;13.13;2.90;;;;;;;11.99;58.21;98374.22;10303881;28;20252;-69
2023/10/28 13:12:27;;;;;;;8.70;3.90;;;;;;;12.71;56.42;98402.88;10309186;28;20397;-67
2023/10/28 13:17:29;;;;;;;8.37;3.83;;;;;;;12.55;57.00;98407.03;10302831;28;20238;-67
2023/10/28 13:22:31;;;;;;;5.97;2.80;;;;;;;12.26;57.46;98495.34;10305669;28;20425;-67
2023/10/28 13:27:32;;;;;;;5.37;2.90;;;;;;;12.44;57.75;98426.59;10299741;28;21678;-68
2023/10/28 13:32:35;;;;;;;8.97;2.70;;;;;;;13.06;55.72;98435.09;10297403;28;20244;-67
2023/10/28 13:37:53;;;;;;;5.90;2.60;;;;;;;13.08;56.10;98411.50;10301855;28;20225;-67
2023/10/28 13:42:55;;;;;;;5.90;2.87;;;;;;;13.46;55.49;98383.34;10303300;28;20381;-68
2023/10/28 13:47:57;;;;;;;6.47;3.37;;;;;;;13.74;54.82;98395.16;10301089;28;20276;-67
2023/10/28 13:52:59;;;;;;;7.27;3.37;;;;;;;14.28;54.10;98424.44;10269186;28;20583;-67
2023/10/28 13:58:01;;;;;;;5.40;3.10;;;;;;;14.40;53.25;98441.31;10299403;28;20234;-67
2023/10/28 14:03:03;;;;;;;7.97;4.60;;;;;;;14.75;52.91;98429.53;10299817;28;20230;-69
2023/10/28 14:08:05;;;;;;;5.83;3.20;;;;;;;13.42;55.75;98507.66;10302512;28;20244;-70
2023/10/28 14:13:06;;;;;;;13.47;6.20;;;;;;;13.92;54.37;98484.75;10299150;28;20234;-67
2023/10/28 14:18:11;;;;;;;18.80;12.10;;;;;;;12.96;56.78;98555.69;10298850;28;20253;-67
2023/10/28 14:23:13;;;;;;;9.27;4.37;;;;;;;12.96;56.57;98579.03;10302792;28;20237;-67
2023/10/28 14:28:15;;;;;;;9.87;4.70;;;;;;;12.75;57.28;98538.22;10259075;28;20207;-67
2023/10/28 14:33:17;;;;;;;8.97;5.43;;;;;;;13.23;57.09;98419.09;10293833;28;20792;-67
2023/10/28 14:38:20;;;;;;;8.53;5.13;;;;;;;14.40;54.51;98409.03;10294355;28;20727;-66
2023/10/28 14:43:22;;;;;;;6.50;4.37;;;;;;;13.51;55.55;98495.47;10298586;28;20241;-66
2023/10/28 14:48:24;;;;;;;7.87;4.87;;;;;;;13.57;55.39;98496.44;10297862;28;20214;-67
2023/10/28 14:53:25;;;;;;;9.53;4.80;;;;;;;13.76;55.20;98459.47;10297827;28;20253;-68
2023/10/28 14:58:27;;;;;;;8.23;4.30;;;;;;;13.62;55.23;98442.78;10297209;28;20689;-67
2023/10/28 15:03:34;;;;;;;10.50;5.70;;;;;;;13.38;55.80;98444.66;10294744;28;20266;-64
2023/10/28 15:08:35;;;;;;;8.77;4.57;;;;;;;12.75;57.32;98497.97;10294351;28;20238;-67
2023/10/28 15:13:38;;;;;;;12.60;9.00;;;;;;;12.70;57.29;98446.84;10298507;28;20234;-65
2023/10/28 15:18:41;;;;;;;7.83;6.23;;;;;;;13.85;54.31;98412.31;10296528;28;20282;-65
2023/10/28 15:23:43;;;;;;;4.60;3.43;;;;;;;13.89;54.42;98401.91;10296463;28;20624;-67
2023/10/28 15:28:47;;;;;;;6.13;3.43;;;;;;;13.68;54.92;98455.25;10296062;28;20984;-65
2023/10/28 15:33:49;;;;;;;4.90;3.87;;;;;;;13.90;54.19;98493.06;10298627;28;20234;-64
2023/10/28 15:38:50;;;;;;;7.97;4.37;;;;;;;13.90;54.35;98447.34;10295354;28;20612;-65
2023/10/28 15:43:53;;;;;;;5.60;3.33;;;;;;;14.77;52.61;98416.63;10294397;28;20236;-68
2023/10/28 15:48:55;;;;;;;7.73;3.87;;;;;;;13.42;55.02;98539.91;10296974;28;20234;-67
2023/10/28 15:53:56;;;;;;;4.97;3.40;;;;;;;14.20;54.76;98422.94;10305956;28;20304;-66
2023/10/28 15:58:58;;;;;;;7.80;4.57;;;;;;;11.96;59.11;98512.22;10297962;28;20233;-67
2023/10/28 16:04:00;;;;;;;5.87;3.70;;;;;;;11.45;61.12;98457.09;10303601;28;20313;-67
2023/10/28 16:09:02;;;;;;;5.63;4.10;;;;;;;13.01;56.37;98451.09;10302302;28;20237;-65
2023/10/28 16:14:04;;;;;;;7.97;4.13;;;;;;;13.36;55.82;98412.69;10291521;28;20245;-68
2023/10/28 16:19:06;;;;;;;6.37;3.87;;;;;;;13.52;53.85;98524.00;10265749;28;20274;-66
2023/10/28 16:24:09;;;;;;;10.90;4.70;;;;;;;13.64;53.87;98468.34;10301048;28;20241;-65
2023/10/28 16:29:10;;;;;;;8.87;4.77;;;;;;;13.00;54.14;98582.91;10303963;28;20229;-69
2023/10/28 16:34:12;;;;;;;5.90;4.10;;;;;;;14.59;51.90;98427.66;10300168;28;20325;-68
2023/10/28 16:39:14;;;;;;;9.53;4.67;;;;;;;14.34;52.45;98476.47;10294228;28;20227;-69
2023/10/28 16:44:16;;;;;;;8.17;5.67;;;;;;;13.64;54.19;98487.16;10301800;28;20241;-68
2023/10/28 16:49:17;;;;;;;8.50;5.43;;;;;;;12.43;56.12;98592.09;10300199;28;20311;-68
2023/10/28 16:54:19;;;;;;;6.17;3.20;;;;;;;11.64;58.44;98452.59;10300631;28;20269;-68
2023/10/28 16:59:21;;;;;;;4.43;2.70;;;;;;;12.31;57.04;98400.78;10299527;28;20292;-67
2023/10/28 17:04:23;;;;;;;3.50;2.80;;;;;;;12.67;55.69;98442.78;10288571;28;20231;-69
2023/10/28 17:09:24;;;;;;;6.13;3.13;;;;;;;13.21;54.31;98440.00;10268220;28;20815;-68
2023/10/28 17:14:26;;;;;;;3.30;2.70;;;;;;;13.18;53.77;98504.13;10299306;28;20331;-68
2023/10/28 17:19:28;;;;;;;3.00;2.30;;;;;;;12.53;55.71;98482.38;10288130;28;20231;-69
2023/10/28 17:24:30;;;;;;;6.30;2.47;;;;;;;12.11;56.53;98478.81;10266026;28;20248;-70
2023/10/28 17:29:32;;;;;;;4.77;2.70;;;;;;;11.65;57.60;98537.31;10298496;28;20665;-69
2023/10/28 17:34:34;;;;;;;4.77;2.30;;;;;;;11.63;58.33;98464.38;10297468;28;20500;-66
2023/10/28 17:39:36;;;;;;;4.97;3.10;;;;;;;12.43;57.16;98409.66;10282643;28;20513;-67
2023/10/28 17:44:38;;;;;;;3.03;2.20;;;;;;;12.60;56.10;98447.41;10261286;28;20267;-66
2023/10/28 17:49:39;;;;;;;2.57;2.33;;;;;;;12.50;56.10;98386.28;10296383;28;20234;-66
2023/10/28 17:54:41;;;;;;;3.57;2.60;;;;;;;12.84;55.02;98409.88;10298035;28;20540;-66
2023/10/28 17:59:43;;;;;;;2.47;2.27;;;;;;;13.16;54.41;98404.13;10291583;28;20233;-67
2023/10/28 18:04:44;;;;;;;4.87;2.57;;;;;;;13.85;52.52;98415.00;10296015;28;20238;-66
2023/10/28 18:09:46;;;;;;;5.10;2.50;;;;;;;14.06;52.16;98442.31;10296328;28;20320;-66
2023/10/28 18:14:49;;;;;;;3.33;2.20;;;;;;;13.42;53.64;98438.59;10297959;28;20597;-67
2023/10/28 18:19:50;;;;;;;4.43;3.17;;;;;;;13.38;54.29;98421.34;10298084;28;20242;-67
2023/10/28 18:24:52;;;;;;;4.03;2.70;;;;;;;12.60;55.06;98490.34;10298049;28;20234;-67
2023/10/28 18:29:54;;;;;;;5.57;3.53;;;;;;;12.48;56.11;98441.22;10294891;28;20236;-66
2023/10/28 18:34:56;;;;;;;3.40;2.97;;;;;;;14.61;51.90;98338.56;10286131;28;20345;-66
2023/10/28 18:39:58;;;;;;;4.63;2.87;;;;;;;14.45;52.20;98394.84;10256768;28;20226;-67
2023/10/28 18:45:00;;;;;;;6.50;4.53;;;;;;;15.80;49.45;98407.28;10272455;28;20237;-66
2023/10/28 18:50:03;;;;;;;6.37;4.40;;;;;;;15.24;49.94;98503.59;10291784;28;20285;-67
2023/10/28 18:55:05;;;;;;;6.70;3.40;;;;;;;13.26;54.32;98520.72;10282678;28;20371;-67
2023/10/28 19:00:10;;;;;;;6.87;2.80;;;;;;;13.47;54.29;98505.06;10259548;28;20285;-65
2023/10/28 19:05:12;;;;;;;3.93;2.40;;;;;;;14.66;51.50;98501.00;10279188;28;20810;-69
2023/10/28 19:10:14;;;;;;;7.37;2.73;;;;;;;13.47;54.01;98522.00;10290934;28;20245;-69
2023/10/28 19:15:16;;;;;;;4.50;2.70;;;;;;;13.82;53.71;98467.38;10279921;28;20234;-69
2023/10/28 19:20:18;;;;;;;4.10;2.53;;;;;;;13.61;54.07;98443.81;10273240;28;20228;-69
2023/10/28 19:25:20;;;;;;;4.50;2.80;;;;;;;14.00;53.41;98463.72;10294936;28;20249;-69
2023/10/28 19:30:21;;;;;;;5.90;2.57;;;;;;;14.07;53.34;98446.63;10299865;28;20226;-70
2023/10/28 19:35:24;;;;;;;3.50;2.70;;;;;;;13.78;53.75;98463.53;10303156;28;20242;-70
2023/10/28 19:40:25;;;;;;;5.13;3.07;;;;;;;13.51;54.38;98470.50;10297749;28;20253;-70
2023/10/28 19:45:27;;;;;;;3.33;2.33;;;;;;;13.57;54.27;98429.25;10297176;28;20666;-67
2023/10/28 19:50:29;;;;;;;3.70;2.70;;;;;;;13.95;53.01;98442.09;10286462;28;20375;-67
2023/10/28 19:55:31;;;;;;;4.70;2.60;;;;;;;13.38;54.42;98447.34;10279396;28;20620;-69
2023/10/28 20:00:35;;;;;;;3.63;2.83;;;;;;;14.28;52.43;98424.44;10280574;28;20238;-68
2023/10/28 20:05:37;;;;;;;4.53;2.70;;;;;;;13.88;52.76;98467.50;10275146;28;20238;-69
2023/10/28 20:10:38;;;;;;;4.03;2.90;;;;;;;15.03;50.86;98410.84;10300663;28;20248;-69
2023/10/28 20:15:40;;;;;;;4.70;3.07;;;;;;;13.39;54.65;98443.63;10298074;28;20321;-70
2023/10/28 20:20:43;;;;;;;4.63;3.20;;;;;;;13.75;53.24;98473.94;10297163;28;20333;-70
2023/10/28 20:25:45;;;;;;;3.63;3.03;;;;;;;13.84;52.74;98496.72;10299771;28;20260;-67
2023/10/28 20:30:47;;;;;;;3.27;2.60;;;;;;;13.10;54.74;98503.41;10278594;28;20226;-70
2023/10/28 20:35:52;;;;;;;4.73;2.97;;;;;;;14.70;52.26;98359.44;10279773;28;22220;-68
2023/10/28 20:40:53;;;;;;;4.50;3.57;;;;;;;12.81;56.49;98429.94;10297295;28;20235;-70
2023/10/28 20:45:55;;;;;;;5.53;2.67;;;;;;;12.48;57.24;98407.13;10278077;28;20696;-69
2023/10/28 20:50:57;;;;;;;3.07;2.60;;;;;;;12.63;57.70;98338.81;10273148;28;20627;-69
2023/10/28 20:55:58;;;;;;;6.80;4.40;;;;;;;;;;10299758;28;20231;-68
2023/10/28 21:01:00;;;;;;;6.63;4.70;;;;;;;12.65;57.18;98324.09;10291393;28;20515;-69
2023/10/28 21:06:03;;;;;;;6.63;4.97;;;;;;;13.19;55.43;98388.38;10292916;28;20706;-69
2023/10/28 21:11:12;;;;;;;10.70;6.57;;;;;;;10.80;61.53;98401.31;10274447;28;20273;-68
2023/10/28 21:16:14;;;;;;;10.60;6.30;;;;;;;13.94;53.67;98402.81;10271290;28;20234;-69
2023/10/28 21:21:16;;;;;;;7.60;5.57;;;;;;;13.51;55.52;98291.25;10294241;28;20240;-69
2023/10/28 21:26:17;;;;;;;10.10;5.07;;;;;;;13.50;55.69;98318.34;10293501;28;20717;-68
2023/10/28 21:31:19;;;;;;;6.33;4.67;;;;;;;12.35;56.52;98408.16;10290591;28;20257;-68
2023/10/28 21:36:21;;;;;;;7.93;4.83;;;;;;;14.81;52.27;98321.91;10271434;28;20235;-68
2023/10/28 21:41:23;;;;;;;6.20;4.03;;;;;;;13.65;53.86;98437.75;10249418;28;20570;-69
2023/10/28 21:46:25;;;;;;;5.40;4.40;;;;;;;12.19;57.82;98471.28;10277383;28;20249;-66
2023/10/28 21:51:27;;;;;;;6.43;4.40;;;;;;;12.39;57.78;98380.88;10294654;28;20266;-68
2023/10/28 21:56:28;;;;;;;5.97;4.20;;;;;;;11.44;59.64;98434.88;10266080;28;20238;-67
2023/10/28 22:01:31;;;;;;;4.80;3.80;;;;;;;12.70;56.46;98339.50;10247583;28;20656;-69
2023/10/28 22:06:33;;;;;;;5.47;3.87;;;;;;;12.79;56.12;98330.06;10276718;28;20292;-68
2023/10/28 22:11:35;;;;;;;5.30;3.77;;;;;;;13.05;55.88;98317.97;10291961;28;20602;-69
2023/10/28 22:16:37;;;;;;;7.50;3.97;;;;;;;14.36;51.78;98469.78;10258559;28;20641;-69
2023/10/28 22:21:39;;;;;;;5.10;4.10;;;;;;;15.48;50.56;98372.91;10248441;28;20234;-68
2023/10/28 22:26:40;;;;;;;5.57;3.77;;;;;;;15.70;50.34;98364.03;10252609;28;20329;-68
2023/10/28 22:31:42;;;;;;;3.83;3.20;;;;;;;13.72;54.72;98420.69;10276428;28;20240;-68
2023/10/28 22:36:44;;;;;;;5.47;4.30;;;;;;;15.60;50.48;98351.25;10288861;28;20234;-68
2023/10/28 22:41:46;;;;;;;5.90;5.10;;;;;;;15.00;51.68;98417.56;10254882;28;20230;-68
2023/10/28 22:46:47;;;;;;;6.67;5.63;;;;;;;14.46;52.77;98430.66;10278257;28;20320;-69
2023/10/28 22:51:49;;;;;;;7.20;5.57;;;;;;;14.01;53.52;98410.75;10290201;28;20229;-68
2023/10/28 22:56:51;;;;;;;6.50;4.23;;;;;;;13.59;54.32;98454.00;10292481;28;20234;-69
2023/10/28 23:01:52;;;;;;;5.77;4.50;;;;;;;13.40;55.32;98411.16;10287333;28;20732;-68
2023/10/28 23:06:54;;;;;;;5.90;5.30;;;;;;;13.08;55.97;98373.91;10295343;28;20740;-65
2023/10/28 23:11:56;;;;;;;6.70;5.17;;;;;;;14.26;53.79;98312.75;10289754;28;20656;-65
2023/10/28 23:16:57;;;;;;;6.87;5.33;;;;;;;14.01;53.26;98400.78;10258555;28;20714;-65
2023/10/28 23:21:59;;;;;;;6.83;4.77;;;;;;;13.63;55.15;98324.28;10279814;28;20236;-66
2023/10/28 23:27:01;;;;;;;8.20;4.40;;;;;;;12.77;56.45;98383.13;10291434;28;20313;-66
2023/10/28 23:32:03;;;;;;;4.30;3.67;;;;;;;13.37;55.01;98314.09;10289425;28;20230;-66
2023/10/28 23:37:07;;;;;;;5.97;4.10;;;;;;;13.53;54.23;98372.47;10286904;28;20230;-65